Time;durP1;ratioP1;P1;durP2;ratioP2;P2;SDS_P1;SDS_P2;PMS_P1;PMS_P2;Temp;Humidity;BMP_temperature;BMP_pressure;BME280_temperature;BME280_humidity;BME280_pressure;Samples;Min_cycle;Max_cycle;Signal;HPM_P1;HPM_P2
2022/07/04 00:00:32;;;;;;;;;;;;;;;;;;;;;
2022/07/04 00:03:07;;;;;;;;;;;;;;;;;;;;;
2022/07/04 00:05:48;;;;;;;;;;;;;;;;;;;;;
2022/07/04 00:08:29;;;;;;;;;;;;;;;;;;;;;
2022/07/04 00:10:55;;;;;;;;;0.00;0.00;;;;;19.07;47.41;101803.25;6246670;22;68791;-75
2022/07/04 00:13:27;;;;;;;;;1.67;1.67;;;;;19.07;47.42;101808.59;6244792;22;45420;-77
2022/07/04 00:15:53;;;;;;;;;1.33;0.33;;;;;19.05;47.50;101823.75;6217217;22;47435;-76
2022/07/04 00:18:18;;;;;;;;;6.00;2.00;;;;;18.98;47.69;101816.78;6245118;22;45367;-75
2022/07/04 00:20:44;;;;;;;;;1.25;1.25;;;;;18.95;47.78;101809.72;6245459;22;45744;-75
2022/07/04 00:23:09;;;;;;;;;1.00;1.00;;;;;18.95;47.75;101818.63;6242907;22;45839;-76
2022/07/04 00:25:35;;;;;;;;;2.00;1.00;;;;;18.89;48.12;101809.84;6245404;22;45474;-76
2022/07/04 00:28:00;;;;;;;;;1.00;1.00;;;;;18.84;48.39;101820.59;6217854;22;45423;-76
2022/07/04 00:30:25;;;;;;;;;2.00;2.00;;;;;18.80;48.02;101818.06;6246231;22;45343;-76
2022/07/04 00:32:51;;;;;;;;;1.67;1.33;;;;;18.79;48.11;101818.94;6248151;22;45201;-76
2022/07/04 00:35:16;;;;;;;;;1.67;1.00;;;;;18.74;48.51;101803.03;6247770;22;46355;-76
2022/07/04 00:37:41;;;;;;;;;1.00;1.00;;;;;18.81;48.43;101818.00;6247286;22;45330;-76
2022/07/04 00:40:07;;;;;;;;;1.00;1.00;;;;;18.80;48.51;101826.94;6247168;22;45276;-76
2022/07/04 00:42:33;;;;;;;;;2.00;2.00;;;;;18.72;48.72;101816.38;6247884;22;45225;-75
2022/07/04 00:44:58;;;;;;;;;1.25;1.25;;;;;18.77;48.28;101832.34;6247603;22;45271;-76
2022/07/04 00:47:23;;;;;;;;;3.00;1.00;;;;;18.67;48.48;101815.59;6220439;22;45121;-75
2022/07/04 00:49:49;;;;;;;;;1.00;1.00;;;;;18.64;48.52;101810.31;6248076;22;45188;-75
2022/07/04 00:52:15;;;;;;;;;1.00;1.00;;;;;18.60;48.81;101811.28;6248277;22;45450;-76
2022/07/04 00:54:40;;;;;;;;;1.25;1.00;;;;;18.67;48.65;101828.94;6247971;22;45354;-76
2022/07/04 00:57:06;;;;;;;;;1.00;1.00;;;;;18.61;48.77;101829.06;6220329;22;45749;-76
2022/07/04 00:59:32;;;;;;;;;2.00;2.00;;;;;18.55;49.03;101825.63;6220289;22;45295;-76
2022/07/04 01:01:57;;;;;;;;;2.00;2.00;;;;;18.58;48.90;101814.88;6247753;22;45544;-75
2022/07/04 01:04:24;;;;;;;;;2.00;0.33;;;;;18.57;49.14;101824.69;6246784;22;45281;-75
2022/07/04 01:06:49;;;;;;;;;3.00;3.00;;;;;18.51;49.26;101825.69;6245784;22;45253;-75
2022/07/04 01:09:15;;;;;;;;;2.75;2.75;;;;;18.57;49.35;101831.81;6247975;22;45150;-75
2022/07/04 01:11:40;;;;;;;;;1.50;1.50;;;;;18.56;49.52;101830.06;6248384;22;45490;-75
2022/07/04 01:14:06;;;;;;;;;1.25;1.25;;;;;18.55;49.49;101823.84;6247160;22;45347;-74
2022/07/04 01:16:32;;;;;;;;;3.00;3.00;;;;;18.54;49.57;101827.41;6247932;22;45172;-76
2022/07/04 01:18:57;;;;;;;;;2.00;2.00;;;;;18.52;49.98;101837.22;6248134;22;45213;-75
2022/07/04 01:21:23;;;;;;;;;2.25;2.25;;;;;18.51;49.95;101832.81;6220038;22;45422;-76
2022/07/04 01:23:48;;;;;;;;;2.00;1.00;;;;;18.55;49.77;101844.28;6247966;22;45147;-75
2022/07/04 01:26:13;;;;;;;;;1.50;1.50;;;;;18.46;49.65;101829.34;6247921;22;45269;-75
2022/07/04 01:28:39;;;;;;;;;2.50;2.50;;;;;18.39;50.22;101819.69;6247796;22;45225;-75
2022/07/04 01:31:05;;;;;;;;;2.00;2.00;;;;;18.42;50.49;101838.34;6247558;22;45499;-76
2022/07/04 01:33:31;;;;;;;;;2.00;2.00;;;;;18.36;50.68;101825.09;6247122;22;45356;-76
2022/07/04 01:35:57;;;;;;;;;2.25;2.00;;;;;18.35;50.45;101824.22;6247271;22;45350;-76
2022/07/04 01:38:25;;;;;;;;;3.00;3.00;;;;;18.30;50.76;101820.75;6219794;22;45291;-76
2022/07/04 01:40:51;;;;;;;;;2.25;2.25;;;;;18.33;50.63;101831.34;6247245;22;45216;-76
2022/07/04 01:43:16;;;;;;;;;2.00;2.00;;;;;18.29;50.66;101835.00;6247399;22;45091;-75
2022/07/04 01:45:42;;;;;;;;;3.75;2.00;;;;;18.21;50.92;101821.81;6247519;22;45210;-76
2022/07/04 01:48:09;;;;;;;;;2.75;2.75;;;;;18.19;51.07;101810.28;6245979;22;45244;-76
2022/07/04 01:50:35;;;;;;;;;3.00;3.00;;;;;18.23;50.84;101822.69;6247690;22;45462;-75
2022/07/04 01:53:01;;;;;;;;;2.00;2.00;;;;;18.21;50.86;101827.16;6247164;22;45385;-76
2022/07/04 01:55:28;;;;;;;;;2.75;2.75;;;;;18.16;51.04;101823.69;6247443;22;45367;-76
2022/07/04 01:57:53;;;;;;;;;3.00;3.00;;;;;18.15;51.14;101821.03;6220226;22;45294;-75
2022/07/04 02:03:03;;;;;;;;;2.25;2.25;;;;;18.16;51.15;101817.47;6247349;22;45267;-76
2022/07/04 02:05:29;;;;;;;;;3.00;3.00;;;;;18.12;51.07;101821.09;6247423;22;45181;-76
2022/07/04 02:07:54;;;;;;;;;3.00;3.00;;;;;18.06;51.30;101806.09;6219710;22;45287;-76
2022/07/04 02:10:20;;;;;;;;;3.50;3.50;;;;;18.07;51.34;101805.19;6247502;22;45275;-75
2022/07/04 02:13:03;;;;;;;;;2.75;2.25;;;;;18.05;51.53;101813.22;6246773;22;45382;-76
2022/07/04 02:15:40;;;;;;;;;3.75;3.00;;;;;18.02;51.14;101804.41;6219352;22;45435;-75
2022/07/04 02:18:08;;;;;;;;;4.00;4.00;;;;;17.99;51.65;101808.00;6219978;22;45292;-75
2022/07/04 02:20:34;;;;;;;;;3.50;3.50;;;;;18.04;51.30;101814.13;6270621;22;45969;-75
2022/07/04 02:23:00;;;;;;;;;1.00;1.00;;;;;17.88;51.91;101801.06;6246794;22;45425;-75
2022/07/04 02:25:26;;;;;;;;;2.75;2.75;;;;;17.94;51.70;101814.31;6247136;22;45295;-75
2022/07/04 02:27:51;;;;;;;;;2.75;2.75;;;;;17.85;51.67;101800.25;6247211;22;45366;-74
2022/07/04 02:30:17;;;;;;;;;1.50;1.50;;;;;17.89;51.94;101809.06;6247355;22;45280;-75
2022/07/04 02:32:42;;;;;;;;;2.50;2.50;;;;;17.82;52.24;101802.94;6247345;22;45557;-75
2022/07/04 02:35:08;;;;;;;;;2.00;1.33;;;;;17.81;52.36;101798.53;6247319;22;45318;-75
2022/07/04 02:37:34;;;;;;;;;3.00;2.00;;;;;17.88;52.16;101804.63;6271066;22;45377;-75
2022/07/04 02:40:00;;;;;;;;;2.00;2.00;;;;;17.85;52.33;101808.25;6247090;22;45146;-75
2022/07/04 02:42:33;;;;;;;;;1.00;1.00;;;;;17.78;52.18;101806.53;6247078;22;45476;-75
2022/07/04 02:44:58;;;;;;;;;2.00;2.00;;;;;17.78;52.27;101814.53;6247060;22;45283;-74
2022/07/04 02:47:27;;;;;;;;;3.00;3.00;;;;;17.83;52.28;101817.16;6248951;22;45299;-75
2022/07/04 02:49:53;;;;;;;;;2.00;2.00;;;;;17.70;52.46;101805.78;6248191;22;45232;-74
2022/07/04 02:52:18;;;;;;;;;3.50;3.00;;;;;17.67;52.59;101799.63;6271585;22;46094;-74
2022/07/04 02:54:45;;;;;;;;;3.75;3.00;;;;;17.76;52.54;101826.13;6248245;22;45259;-75
2022/07/04 02:57:10;;;;;;;;;2.00;2.00;;;;;17.74;52.54;101819.94;6246403;22;45371;-74
2022/07/04 02:59:36;;;;;;;;;3.25;3.00;;;;;17.72;52.67;101821.72;6247866;22;45434;-75
2022/07/04 03:02:01;;;;;;;;;3.00;3.00;;;;;17.64;52.53;101821.84;6248407;22;46324;-74
2022/07/04 03:04:27;;;;;;;;;1.00;1.00;;;;;17.55;52.77;101812.22;6248496;22;45370;-74
2022/07/04 03:06:52;;;;;;;;;3.75;3.75;;;;;17.57;52.69;101823.75;6272346;22;45388;-74
2022/07/04 03:09:17;;;;;;;;;3.33;3.00;;;;;17.63;52.96;101823.63;6272451;22;45508;-75
2022/07/04 03:11:44;;;;;;;;;2.25;2.25;;;;;17.55;52.74;101817.53;6270936;22;47444;-75
2022/07/04 03:14:09;;;;;;;;;3.75;3.00;;;;;17.55;53.02;101830.00;6247549;22;45430;-75
2022/07/04 03:16:35;;;;;;;;;4.00;4.00;;;;;17.54;53.08;101831.78;6248619;22;45181;-75
2022/07/04 03:19:00;;;;;;;;;1.00;1.00;;;;;17.48;53.09;101826.56;6248529;22;45506;-75
2022/07/04 03:21:26;;;;;;;;;3.00;1.75;;;;;17.52;53.52;101835.38;6220666;22;46245;-75
2022/07/04 03:23:57;;;;;;;;;2.75;2.00;;;;;17.46;53.44;101838.13;6248466;22;45134;-75
2022/07/04 03:26:27;;;;;;;;;2.75;2.75;;;;;17.51;53.49;101849.56;6248667;22;45263;-75
2022/07/04 03:28:53;;;;;;;;;4.00;2.00;;;;;17.33;53.54;101821.44;6248016;22;45362;-75
2022/07/04 03:31:18;;;;;;;;;3.50;2.50;;;;;17.32;53.44;101833.88;6220354;22;48252;-75
2022/07/04 03:33:44;;;;;;;;;2.25;2.00;;;;;17.29;53.50;101833.03;6220815;22;45206;-76
2022/07/04 03:36:09;;;;;;;;;3.00;2.00;;;;;17.29;53.68;101839.22;6248370;22;45145;-76
2022/07/04 03:38:35;;;;;;;;;2.00;2.00;;;;;17.28;54.01;101839.25;6248344;22;45493;-75
2022/07/04 03:41:01;;;;;;;;;2.00;2.00;;;;;17.18;53.77;101828.72;6248053;22;45537;-76
2022/07/04 03:43:26;;;;;;;;;3.00;3.00;;;;;17.23;54.10;101844.63;6248159;22;45292;-75
2022/07/04 03:45:52;;;;;;;;;3.00;3.00;;;;;17.11;54.29;101832.38;6248265;22;45227;-75
2022/07/04 03:48:17;;;;;;;;;4.00;4.00;;;;;17.16;54.28;101832.31;6248182;22;45382;-75
2022/07/04 03:50:45;;;;;;;;;3.00;2.00;;;;;17.20;54.27;101834.91;6248036;22;45475;-75
2022/07/04 03:53:10;;;;;;;;;3.25;2.00;;;;;17.18;54.55;101842.03;6246235;22;45538;-75
2022/07/04 03:55:35;;;;;;;;;3.00;3.00;;;;;17.22;54.50;101842.03;6248423;22;45448;-76
2022/07/04 03:58:04;;;;;;;;;4.00;4.00;;;;;17.04;54.73;101814.75;6247627;22;45491;-75
2022/07/04 04:00:29;;;;;;;;;3.50;3.50;;;;;17.10;54.59;101824.41;6245877;22;47993;-76
2022/07/04 04:02:55;;;;;;;;;2.33;2.33;;;;;17.08;54.82;101824.47;6248551;22;45415;-75
2022/07/04 04:05:26;;;;;;;;;2.75;2.75;;;;;17.14;54.67;101834.13;6221262;22;45549;-75
2022/07/04 04:08:01;;;;;;;;;4.00;4.00;;;;;17.09;54.58;101814.69;6248314;22;45255;-75
2022/07/04 04:10:29;;;;;;;;;4.00;3.50;;;;;17.04;54.84;101820.06;6248047;22;46136;-75
2022/07/04 04:12:54;;;;;;;;;4.00;4.00;;;;;17.07;54.37;101830.66;6220362;22;45218;-75
2022/07/04 04:15:20;;;;;;;;;4.00;4.00;;;;;17.15;54.49;101844.75;6220813;22;45389;-75
2022/07/04 04:17:45;;;;;;;;;5.25;4.00;;;;;17.07;54.70;101840.44;6248012;22;45279;-75
2022/07/04 04:20:11;;;;;;;;;4.00;3.00;;;;;17.10;54.80;101841.25;6247833;22;45266;-75
2022/07/04 04:22:37;;;;;;;;;4.00;3.00;;;;;17.11;54.76;101843.03;6220758;22;45186;-75
2022/07/04 04:25:02;;;;;;;;;3.25;3.00;;;;;17.06;54.84;101842.22;6248749;22;45306;-75
2022/07/04 04:27:28;;;;;;;;;4.00;4.00;;;;;16.98;54.64;101842.31;6248229;22;45411;-75
2022/07/04 04:29:58;;;;;;;;;2.00;2.00;;;;;17.02;55.18;101848.47;6248870;22;46248;-76
2022/07/04 04:32:23;;;;;;;;;2.00;2.00;;;;;17.05;54.67;101855.53;6222508;22;45523;-75
2022/07/04 04:34:49;;;;;;;;;4.00;4.00;;;;;17.13;54.95;101873.19;6249996;22;45217;-76
2022/07/04 04:37:14;;;;;;;;;3.50;3.50;;;;;17.15;54.82;101871.34;6249526;22;45137;-77
2022/07/04 04:39:39;;;;;;;;;3.50;2.25;;;;;17.16;54.85;101874.88;6221637;22;47656;-77
2022/07/04 04:42:05;;;;;;;;;1.25;1.00;;;;;17.06;54.74;101850.19;6222397;22;45410;-76
2022/07/04 04:44:31;;;;;;;;;3.25;3.25;;;;;17.07;55.04;101851.06;6249046;22;45258;-77
2022/07/04 04:46:56;;;;;;;;;6.00;6.00;;;;;17.15;55.18;101870.47;6221683;22;45443;-77
2022/07/04 04:49:22;;;;;;;;;4.00;3.00;;;;;17.05;55.23;101863.50;6248022;22;46414;-76
2022/07/04 04:51:47;;;;;;;;;4.00;2.75;;;;;17.07;55.10;101867.91;6220789;22;45419;-76
2022/07/04 04:54:12;;;;;;;;;3.00;2.25;;;;;17.00;55.04;101850.28;6220964;22;45186;-76
2022/07/04 04:56:40;;;;;;;;;3.50;3.00;;;;;17.10;54.79;101872.31;6246880;22;45854;-76
2022/07/04 04:59:07;;;;;;;;;3.50;3.50;;;;;17.07;55.29;101869.69;6248253;22;45253;-75
2022/07/04 05:01:32;;;;;;;;;4.50;4.50;;;;;17.03;55.10;101860.00;6247364;22;45265;-76
2022/07/04 05:03:59;;;;;;;;;4.25;3.50;;;;;17.00;55.30;101855.59;6249768;22;45173;-76
2022/07/04 05:06:25;;;;;;;;;2.25;2.25;;;;;16.95;55.24;101853.00;6248510;22;45203;-76
2022/07/04 05:08:51;;;;;;;;;3.75;2.50;;;;;16.96;54.93;101848.53;6220474;22;47282;-76
2022/07/04 05:11:16;;;;;;;;;4.25;3.50;;;;;16.99;55.19;101859.16;6248355;22;45248;-76
2022/07/04 05:13:41;;;;;;;;;3.50;3.50;;;;;16.90;55.37;101841.53;6248082;22;45346;-75
2022/07/04 05:16:07;;;;;;;;;5.00;3.75;;;;;17.11;55.30;101876.75;6246218;22;45478;-75
2022/07/04 05:18:32;;;;;;;;;2.00;2.00;;;;;17.06;55.16;101867.94;6221220;22;46079;-75
2022/07/04 05:20:59;;;;;;;;;3.00;3.00;;;;;17.18;55.57;101884.63;6219891;22;45967;-76
2022/07/04 05:23:26;;;;;;;;;3.25;3.25;;;;;17.14;55.31;101874.06;6220744;22;45179;-76
2022/07/04 05:25:52;;;;;;;;;5.00;4.00;;;;;17.19;55.92;101874.88;6248315;22;45493;-76
2022/07/04 05:28:17;;;;;;;;;4.25;4.00;;;;;17.10;56.08;101854.56;6219888;22;46837;-76
2022/07/04 05:30:43;;;;;;;;;2.00;2.00;;;;;17.12;56.41;101860.75;6247473;22;45239;-75
2022/07/04 05:33:11;;;;;;;;;2.75;2.75;;;;;17.23;56.51;101867.72;6248062;22;45178;-76
2022/07/04 05:35:37;;;;;;;;;3.25;2.00;;;;;17.25;56.49;101882.78;6220073;22;45698;-76
2022/07/04 05:38:03;;;;;;;;;2.75;2.75;;;;;17.10;56.08;101848.38;6219495;22;47098;-76
2022/07/04 05:40:29;;;;;;;;;3.50;3.00;;;;;17.19;56.58;101861.56;6246968;22;45335;-76
2022/07/04 05:42:56;;;;;;;;;3.75;3.75;;;;;17.21;56.27;101862.41;6220136;22;45327;-75
2022/07/04 05:45:21;;;;;;;;;8.00;6.75;;;;;17.20;56.44;101856.22;6246927;22;45229;-76
2022/07/04 05:47:47;;;;;;;;;4.75;4.75;;;;;17.25;56.32;101861.47;6247243;22;45210;-76
2022/07/04 05:50:12;;;;;;;;;5.00;5.00;;;;;17.39;56.45;101874.59;6245219;22;45170;-75
2022/07/04 05:52:38;;;;;;;;;1.25;1.25;;;;;17.42;55.90;101872.75;6220182;22;45371;-75
2022/07/04 05:55:06;;;;;;;;;4.25;4.25;;;;;17.35;55.99;101854.25;6247301;22;45161;-75
2022/07/04 05:57:34;;;;;;;;;5.00;4.00;;;;;17.35;56.15;101851.59;6245492;22;47251;-75
2022/07/04 06:00:05;;;;;;;;;3.00;3.00;;;;;17.31;56.20;101844.53;6219375;22;45297;-76
2022/07/04 06:02:30;;;;;;;;;5.75;4.50;;;;;17.41;56.03;101865.69;6244391;22;45396;-75
2022/07/04 06:04:56;;;;;;;;;4.25;4.25;;;;;17.37;56.13;101845.34;6218827;22;45439;-75
2022/07/04 06:07:21;;;;;;;;;2.00;2.00;;;;;17.46;56.20;101872.75;6219388;22;48136;-75
2022/07/04 06:09:47;;;;;;;;;5.00;4.00;;;;;17.51;56.30;101868.19;6245394;22;45319;-75
2022/07/04 06:12:12;;;;;;;;;6.00;4.00;;;;;17.49;56.17;101872.69;6219933;22;45815;-75
2022/07/04 06:14:38;;;;;;;;;4.25;4.00;;;;;17.56;55.97;101877.00;6218878;22;45328;-76
2022/07/04 06:17:03;;;;;;;;;4.00;3.00;;;;;17.62;56.20;101884.94;6246509;22;46884;-76
2022/07/04 06:19:29;;;;;;;;;6.50;4.00;;;;;17.64;56.08;101889.31;6247225;22;45251;-76
2022/07/04 06:21:57;;;;;;;;;3.25;3.25;;;;;17.64;56.14;101880.44;6220473;22;45360;-75
2022/07/04 06:24:22;;;;;;;;;5.00;5.00;;;;;17.63;56.15;101876.03;6248493;22;45113;-75
2022/07/04 06:26:48;;;;;;;;;3.25;3.25;;;;;17.62;56.06;101875.16;6248130;22;46030;-75
2022/07/04 06:29:16;;;;;;;;;3.75;3.75;;;;;17.70;56.13;101884.81;6247980;22;45159;-75
2022/07/04 06:31:42;;;;;;;;;3.25;3.25;;;;;17.72;56.33;101883.91;6221170;22;45399;-75
2022/07/04 06:36:54;;;;;;;;;4.75;4.75;;;;;17.75;56.58;101877.59;6247997;22;45623;-75
2022/07/04 06:39:21;;;;;;;;;3.50;3.50;;;;;17.79;56.13;101882.03;6248450;22;45203;-75
2022/07/04 06:41:47;;;;;;;;;4.00;4.00;;;;;17.80;56.22;101882.03;6248530;22;45412;-76
2022/07/04 06:44:12;;;;;;;;;4.00;4.00;;;;;17.80;56.23;101878.44;6248116;22;45180;-74
2022/07/04 06:46:37;;;;;;;;;3.00;3.00;;;;;17.85;56.12;101880.16;6248368;22;46160;-75
2022/07/04 06:49:03;;;;;;;;;5.25;5.25;;;;;17.87;56.38;101885.47;6246716;22;45242;-76
2022/07/04 06:51:28;;;;;;;;;5.00;4.00;;;;;17.91;56.08;101878.28;6249061;22;45652;-76
2022/07/04 06:53:54;;;;;;;;;3.00;3.00;;;;;17.92;55.77;101872.94;6246508;22;45165;-76
2022/07/04 06:56:19;;;;;;;;;4.00;3.00;;;;;17.92;55.64;101872.06;6248190;22;45437;-77
2022/07/04 06:58:47;;;;;;;;;2.50;2.50;;;;;18.00;55.53;101881.69;6220789;22;45448;-75
2022/07/04 07:01:15;;;;;;;;;3.00;3.00;;;;;18.11;55.77;101894.84;6220701;22;45378;-76
2022/07/04 07:03:40;;;;;;;;;3.25;3.25;;;;;18.14;55.76;101884.13;6220599;22;45359;-75
2022/07/04 07:06:06;;;;;;;;;3.75;2.75;;;;;18.22;55.16;101894.66;6247777;22;45785;-75
2022/07/04 07:08:31;;;;;;;;;3.25;2.00;;;;;18.27;55.28;101896.34;6246198;22;45723;-77
2022/07/04 07:11:12;;;;;;;;;2.67;2.67;;;;;18.33;54.89;101897.13;6248106;22;45222;-77
2022/07/04 07:13:48;;;;;;;;;2.00;2.00;;;;;18.40;54.82;101894.34;6247374;22;45772;-77
2022/07/04 07:16:14;;;;;;;;;3.00;3.00;;;;;18.50;54.57;101906.63;6219622;22;47492;-77
2022/07/04 07:18:43;;;;;;;;;5.75;5.75;;;;;18.57;54.38;101904.69;6247722;22;45378;-77
2022/07/04 07:21:09;;;;;;;;;2.25;2.25;;;;;18.58;54.23;101900.22;6247750;22;45118;-77
2022/07/04 07:23:40;;;;;;;;;5.00;5.00;;;;;18.66;54.34;101911.69;6247467;22;45164;-77
2022/07/04 07:26:06;;;;;;;;;4.75;3.75;;;;;18.69;54.28;101907.16;6247499;22;46232;-76
2022/07/04 07:28:32;;;;;;;;;3.00;3.00;;;;;18.75;53.61;101906.19;6219808;22;45197;-77
2022/07/04 07:30:57;;;;;;;;;4.00;3.00;;;;;18.83;53.32;101912.25;6245420;22;45219;-78
2022/07/04 07:33:23;;;;;;;;;2.50;2.50;;;;;18.86;53.39;101913.97;6247535;22;45106;-79
2022/07/04 07:35:48;;;;;;;;;2.33;2.33;;;;;18.89;53.19;101904.13;6219749;22;46935;-78
2022/07/04 07:38:14;;;;;;;;;3.00;3.00;;;;;18.95;52.89;101901.34;6247420;22;45196;-79
2022/07/04 07:40:39;;;;;;;;;2.33;2.33;;;;;19.01;52.78;101896.81;6248425;22;45239;-77
2022/07/04 07:43:05;;;;;;;;;3.00;3.00;;;;;19.08;52.60;101899.28;6246725;22;45202;-78
2022/07/04 07:45:33;;;;;;;;;3.75;2.00;;;;;19.12;52.41;101906.34;6245838;22;46873;-77
2022/07/04 07:47:58;;;;;;;;;3.00;2.67;;;;;19.14;52.23;101888.50;6247466;22;45284;-76
2022/07/04 07:50:26;;;;;;;;;4.50;3.75;;;;;19.22;52.38;101903.47;6247411;22;45478;-77
2022/07/04 07:52:52;;;;;;;;;3.00;3.00;;;;;19.31;52.12;101905.94;6247541;22;45180;-78
2022/07/04 07:55:17;;;;;;;;;1.00;1.00;;;;;19.36;51.43;101899.59;6220085;22;47198;-77
2022/07/04 07:57:43;;;;;;;;;2.33;2.00;;;;;19.44;50.81;101903.91;6247679;22;45144;-76
2022/07/04 08:00:09;;;;;;;;;1.33;1.33;;;;;19.52;50.44;101904.59;6247694;22;45532;-76
2022/07/04 08:05:22;;;;;;;;;2.00;1.33;;;;;19.64;50.16;101888.28;6247321;22;45645;-79
2022/07/04 08:07:48;;;;;;;;;3.00;2.00;;;;;19.72;50.35;101886.34;6247641;22;45306;-77
2022/07/04 08:10:13;;;;;;;;;3.33;2.00;;;;;19.83;50.33;101886.09;6248013;22;45290;-77
2022/07/04 08:12:39;;;;;;;;;3.00;3.00;;;;;19.94;50.07;101884.06;6247460;22;45401;-79
2022/07/04 08:15:05;;;;;;;;;2.00;1.67;;;;;20.04;49.71;101884.69;6219674;22;48305;-79
2022/07/04 08:17:30;;;;;;;;;2.67;2.67;;;;;20.11;49.46;101880.94;6246428;22;45236;-80
2022/07/04 08:19:56;;;;;;;;;3.00;2.00;;;;;20.20;48.53;101890.53;6247460;22;45459;-78
2022/07/04 08:22:21;;;;;;;;;2.00;2.00;;;;;20.28;49.08;101884.06;6220192;22;45130;-78
2022/07/04 08:24:52;;;;;;;;;2.33;1.00;;;;;20.33;47.90;101875.94;6247300;22;46081;-78
2022/07/04 08:27:17;;;;;;;;;3.00;1.33;;;;;20.39;47.03;101878.44;6247480;22;45369;-78
2022/07/04 08:29:43;;;;;;;;;2.00;2.00;;;;;20.46;46.46;101882.72;6219769;22;45249;-79
2022/07/04 08:32:08;;;;;;;;;1.67;1.67;;;;;20.52;46.70;101881.66;6248055;22;45485;-78
2022/07/04 08:34:35;;;;;;;;;1.00;1.00;;;;;20.56;46.23;101877.16;6247919;22;46108;-78
2022/07/04 08:37:01;;;;;;;;;1.00;1.00;;;;;20.62;45.95;101877.84;6249915;22;45222;-78
2022/07/04 08:39:27;;;;;;;;;0.67;0.67;;;;;20.66;45.72;101868.84;6250793;22;45160;-78
2022/07/04 08:41:56;;;;;;;;;2.00;1.00;;;;;20.76;45.67;101876.59;6222461;22;45420;-79
2022/07/04 08:44:23;;;;;;;;;1.33;1.33;;;;;20.81;45.20;101867.50;6220156;22;46346;-78
2022/07/04 08:46:52;;;;;;;;;1.67;1.67;;;;;20.85;45.22;101869.19;6220931;22;45568;-79
2022/07/04 08:49:28;;;;;;;;;2.00;2.00;;;;;20.86;45.01;101862.91;6220660;22;45169;-80
2022/07/04 08:52:03;;;;;;;;;1.00;1.00;;;;;20.87;44.55;101859.28;6219374;22;45126;-78
2022/07/04 09:00:01;;;;;;;;;1.33;1.00;;;;;21.03;44.17;101853.50;6246735;22;45355;-79
2022/07/04 09:02:29;;;;;;;;;1.00;0.33;;;;;21.10;44.08;101858.63;6219703;22;45483;-78
2022/07/04 09:04:59;;;;;;;;;1.00;1.00;;;;;21.19;44.30;101857.47;6219423;22;47222;-79
2022/07/04 09:07:26;;;;;;;;;3.00;3.00;;;;;21.29;44.46;101853.59;6217853;22;45648;-79
2022/07/04 09:09:53;;;;;;;;;2.33;2.00;;;;;21.38;43.97;101852.47;6246148;22;45390;-79
2022/07/04 09:12:19;;;;;;;;;1.67;1.67;;;;;21.47;43.58;101854.00;6244121;22;45371;-79
2022/07/04 09:14:48;;;;;;;;;1.00;1.00;;;;;21.52;43.35;101857.41;6218936;22;45888;-79
2022/07/04 09:17:14;;;;;;;;;4.33;2.67;;;;;21.55;42.99;101846.59;6219288;22;45201;-79
2022/07/04 09:19:40;;;;;;;;;4.00;3.00;;;;;21.59;43.28;101853.59;6218315;22;45321;-79
2022/07/04 09:22:11;;;;;;;;;1.00;1.00;;;;;21.67;43.08;101854.22;6246742;22;45265;-82
2022/07/04 09:24:54;;;;;;;;;2.00;1.00;;;;;21.73;41.88;101856.72;6218982;22;45947;-78
2022/07/04 09:27:31;;;;;;;;;0.00;0.00;;;;;21.77;42.61;101842.28;6246808;22;45314;-78
2022/07/04 09:29:57;;;;;;;;;1.00;1.00;;;;;21.78;42.10;101837.78;6220280;22;45495;-78
2022/07/04 09:32:59;;;;;;;;;0.67;0.67;;;;;21.85;41.95;101842.03;6221533;22;45870;-79
2022/07/04 09:35:29;;;;;;;;;2.00;2.00;;;;;21.91;42.08;101838.25;6247139;22;46441;-79
2022/07/04 09:38:03;;;;;;;;;4.00;2.00;;;;;21.95;42.22;101847.97;6246632;22;45221;-77
2022/07/04 09:40:31;;;;;;;;;2.67;2.67;;;;;22.02;42.23;101841.44;6219613;22;45289;-77
2022/07/04 09:43:10;;;;;;;;;1.00;1.00;;;;;22.08;42.36;101841.28;6247246;22;45298;-77
2022/07/04 09:45:52;;;;;;;;;0.33;0.33;;;;;22.16;42.21;101843.66;6244274;22;48057;-78
2022/07/04 09:48:17;;;;;;;;;1.33;1.33;;;;;22.17;41.78;101840.06;6246806;22;45376;-78
2022/07/04 09:50:43;;;;;;;;;2.00;1.00;;;;;22.18;41.74;101842.72;6247004;22;45323;-78
2022/07/04 09:53:08;;;;;;;;;1.00;1.00;;;;;22.17;41.49;101840.06;6246941;22;45350;-78
2022/07/04 09:55:38;;;;;;;;;2.67;2.67;;;;;22.17;41.13;101843.63;6246061;22;45728;-77
2022/07/04 09:58:13;;;;;;;;;2.67;1.00;;;;;22.23;41.11;101843.44;6247287;22;45188;-78
2022/07/04 10:00:43;;;;;;;;;1.67;1.67;;;;;22.32;40.96;101842.25;6246289;22;45220;-77
2022/07/04 10:03:20;;;;;;;;;2.00;2.00;;;;;22.39;41.02;101838.41;6246049;22;45375;-78
2022/07/04 10:05:47;;;;;;;;;2.00;2.00;;;;;22.46;40.72;101841.75;6246716;22;45994;-77
2022/07/04 10:08:12;;;;;;;;;3.00;2.00;;;;;22.53;40.67;101842.41;6244123;22;45516;-76
2022/07/04 10:10:39;;;;;;;;;1.33;1.33;;;;;22.60;40.61;101836.75;6246106;22;45494;-76
2022/07/04 10:13:05;;;;;;;;;2.00;2.00;;;;;22.73;40.49;101842.56;6218523;22;45606;-76
2022/07/04 10:15:32;;;;;;;;;2.00;2.00;;;;;22.82;40.14;101836.84;6218423;22;47150;-76
2022/07/04 10:17:58;;;;;;;;;0.33;0.33;;;;;22.93;39.25;101831.06;6218619;22;45382;-76
2022/07/04 10:20:23;;;;;;;;;2.00;2.00;;;;;23.06;39.15;101824.31;6242904;22;45371;-77
2022/07/04 10:22:49;;;;;;;;;1.67;1.67;;;;;23.17;39.34;101821.22;6245781;22;45406;-76
2022/07/04 10:25:14;;;;;;;;;2.00;2.00;;;;;23.26;38.90;101823.56;6245559;22;45367;-76
2022/07/04 10:27:41;;;;;;;;;1.00;1.00;;;;;23.31;38.17;101824.25;6245806;22;45248;-78
2022/07/04 10:30:11;;;;;;;;;1.67;1.67;;;;;23.40;37.89;101827.50;6218820;22;45218;-77
2022/07/04 10:32:38;;;;;;;;;1.00;1.00;;;;;23.51;37.56;101823.44;6245946;22;45224;-77
2022/07/04 10:35:04;;;;;;;;;1.00;1.00;;;;;23.59;37.78;101820.44;6245014;22;45356;-77
2022/07/04 10:38:02;;;;;;;;;1.33;1.33;;;;;23.75;37.42;101835.03;6245586;22;45284;-77
2022/07/04 10:40:44;;;;;;;;;3.00;3.00;;;;;23.92;37.52;101826.28;6246012;22;45231;-76
2022/07/04 10:43:25;;;;;;;;;2.33;2.33;;;;;24.13;37.09;101819.06;6218359;22;45448;-76
2022/07/04 10:45:52;;;;;;;;;1.00;1.00;;;;;24.28;36.49;101817.53;6218042;22;47173;-76
2022/07/04 10:48:24;;;;;;;;;1.00;1.00;;;;;24.43;36.89;101816.88;6218173;22;45364;-77
2022/07/04 10:51:10;;;;;;;;;2.00;2.00;;;;;24.60;36.31;101817.97;6244430;22;45400;-77
2022/07/04 10:53:58;;;;;;;;;2.00;2.00;;;;;24.79;36.35;101809.91;6245640;22;45361;-76
2022/07/04 10:56:27;;;;;;;;;3.00;2.00;;;;;24.93;35.79;101815.50;6246043;22;46139;-78
2022/07/04 10:58:54;;;;;;;;;3.00;2.00;;;;;25.08;35.02;101816.63;6218321;22;45245;-76
2022/07/04 11:01:21;;;;;;;;;2.00;1.00;;;;;25.17;35.19;101804.56;6245952;22;45163;-77
2022/07/04 11:03:49;;;;;;;;;4.67;4.00;;;;;25.24;34.72;101806.88;6246320;22;45382;-78
2022/07/04 11:06:29;;;;;;;;;73.50;59.50;;;;;25.35;34.68;101803.69;6245612;22;46273;-78
2022/07/04 11:09:17;;;;;;;;;2.00;2.00;;;;;25.38;34.04;101811.59;6219965;22;45231;-78
2022/07/04 11:12:04;;;;;;;;;4.33;2.67;;;;;25.34;34.37;101814.53;6247939;22;45390;-78
2022/07/04 11:14:40;;;;;;;;;6.00;4.00;;;;;25.33;33.83;101810.09;6274701;22;45490;-78
2022/07/04 11:17:10;;;;;;;;;2.33;2.00;;;;;25.33;33.98;101802.88;6250727;22;46351;-79
2022/07/04 11:19:36;;;;;;;;;0.00;0.00;;;;;25.37;34.35;101809.88;6278632;22;45457;-79
2022/07/04 11:22:04;;;;;;;;;3.33;3.33;;;;;25.41;33.84;101805.19;6279982;22;45271;-78
2022/07/04 11:24:30;;;;;;;;;2.00;2.00;;;;;25.49;34.54;101811.09;6277631;22;45417;-78
2022/07/04 11:26:56;;;;;;;;;1.00;1.00;;;;;25.62;33.90;101804.13;6251752;22;47305;-78
2022/07/04 11:29:21;;;;;;;;;2.00;1.00;;;;;25.72;33.89;101808.13;6278771;22;45211;-77
2022/07/04 11:31:49;;;;;;;;;1.00;1.00;;;;;25.80;33.76;101806.88;6250853;22;45242;-78
2022/07/04 11:34:15;;;;;;;;;3.67;3.67;;;;;25.83;33.46;101793.22;6278841;22;45074;-77
2022/07/04 11:36:42;;;;;;;;;2.00;2.00;;;;;25.92;33.65;101798.16;6278380;22;45728;-75
2022/07/04 11:39:11;;;;;;;;;7.00;6.67;;;;;26.04;33.74;101789.44;6278073;22;45321;-77
2022/07/04 11:47:20;;;;;;;;;2.00;2.00;;;;;26.37;32.74;101794.00;6275553;22;45630;-78
2022/07/04 11:49:50;;;;;;;;;2.00;2.00;;;;;26.42;32.82;101785.69;6276541;22;45292;-78